sensor_id;sensor_type;location;lat;lon;timestamp;P1;durP1;ratioP1;P2;durP2;ratioP2
47365;SDS011;33105;47.964;7.982;2023-07-31T00:01:47;4.45;;;1.70;;
47365;SDS011;33105;47.964;7.982;2023-07-31T00:09:12;4.75;;;1.65;;
47365;SDS011;33105;47.964;7.982;2023-07-31T00:27:08;5.38;;;1.52;;
47365;SDS011;33105;47.964;7.982;2023-07-31T00:30:47;5.53;;;1.88;;
47365;SDS011;33105;47.964;7.982;2023-07-31T00:34:42;9.52;;;2.30;;
47365;SDS011;33105;47.964;7.982;2023-07-31T00:38:44;3.50;;;1.60;;
47365;SDS011;33105;47.964;7.982;2023-07-31T00:42:52;6.22;;;2.38;;
47365;SDS011;33105;47.964;7.982;2023-07-31T00:50:25;4.85;;;1.65;;
47365;SDS011;33105;47.964;7.982;2023-07-31T00:53:57;4.65;;;1.80;;
47365;SDS011;33105;47.964;7.982;2023-07-31T00:56:59;5.28;;;2.28;;
47365;SDS011;33105;47.964;7.982;2023-07-31T01:04:21;6.85;;;1.83;;
47365;SDS011;33105;47.964;7.982;2023-07-31T01:09:21;3.25;;;1.75;;
47365;SDS011;33105;47.964;7.982;2023-07-31T01:12:17;2.92;;;1.80;;
47365;SDS011;33105;47.964;7.982;2023-07-31T01:20:27;9.60;;;1.80;;
47365;SDS011;33105;47.964;7.982;2023-07-31T01:28:14;9.68;;;2.00;;
47365;SDS011;33105;47.964;7.982;2023-07-31T01:31:36;7.45;;;2.35;;
47365;SDS011;33105;47.964;7.982;2023-07-31T01:34:50;2.88;;;1.35;;
47365;SDS011;33105;47.964;7.982;2023-07-31T01:39:06;4.47;;;1.70;;
47365;SDS011;33105;47.964;7.982;2023-07-31T01:42:14;4.07;;;1.50;;
47365;SDS011;33105;47.964;7.982;2023-07-31T01:45:27;4.93;;;1.63;;
47365;SDS011;33105;47.964;7.982;2023-07-31T01:48:54;4.90;;;1.90;;
47365;SDS011;33105;47.964;7.982;2023-07-31T01:52:06;7.82;;;1.80;;
47365;SDS011;33105;47.964;7.982;2023-07-31T01:55:11;6.13;;;1.67;;
47365;SDS011;33105;47.964;7.982;2023-07-31T02:01:29;5.50;;;1.70;;
47365;SDS011;33105;47.964;7.982;2023-07-31T02:05:12;4.18;;;1.70;;
47365;SDS011;33105;47.964;7.982;2023-07-31T02:09:35;5.60;;;1.70;;
47365;SDS011;33105;47.964;7.982;2023-07-31T02:12:52;6.05;;;2.17;;
47365;SDS011;33105;47.964;7.982;2023-07-31T02:16:08;3.92;;;1.70;;
47365;SDS011;33105;47.964;7.982;2023-07-31T02:19:20;8.80;;;1.83;;
47365;SDS011;33105;47.964;7.982;2023-07-31T02:26:20;5.68;;;1.60;;
47365;SDS011;33105;47.964;7.982;2023-07-31T02:29:57;5.03;;;1.73;;
47365;SDS011;33105;47.964;7.982;2023-07-31T02:33:07;9.23;;;1.75;;
47365;SDS011;33105;47.964;7.982;2023-07-31T02:36:35;3.75;;;1.70;;
47365;SDS011;33105;47.964;7.982;2023-07-31T02:41:00;5.30;;;1.73;;
47365;SDS011;33105;47.964;7.982;2023-07-31T02:44:12;8.48;;;2.42;;
47365;SDS011;33105;47.964;7.982;2023-07-31T02:47:25;4.72;;;1.83;;
47365;SDS011;33105;47.964;7.982;2023-07-31T02:50:30;5.00;;;1.80;;
47365;SDS011;33105;47.964;7.982;2023-07-31T02:53:31;6.72;;;2.08;;
47365;SDS011;33105;47.964;7.982;2023-07-31T02:56:45;7.22;;;1.98;;
47365;SDS011;33105;47.964;7.982;2023-07-31T02:59:50;12.68;;;2.00;;
47365;SDS011;33105;47.964;7.982;2023-07-31T03:02:58;5.20;;;1.80;;
47365;SDS011;33105;47.964;7.982;2023-07-31T03:06:01;8.75;;;2.08;;
47365;SDS011;33105;47.964;7.982;2023-07-31T03:09:02;6.10;;;2.05;;
47365;SDS011;33105;47.964;7.982;2023-07-31T03:12:19;7.55;;;1.92;;
47365;SDS011;33105;47.964;7.982;2023-07-31T03:15:33;5.70;;;2.03;;
47365;SDS011;33105;47.964;7.982;2023-07-31T03:18:46;4.45;;;2.10;;
47365;SDS011;33105;47.964;7.982;2023-07-31T03:21:47;4.40;;;1.90;;
47365;SDS011;33105;47.964;7.982;2023-07-31T03:29:00;6.13;;;2.38;;
47365;SDS011;33105;47.964;7.982;2023-07-31T03:32:05;7.32;;;2.13;;
47365;SDS011;33105;47.964;7.982;2023-07-31T03:35:39;4.75;;;1.80;;
47365;SDS011;33105;47.964;7.982;2023-07-31T03:39:05;9.82;;;1.85;;
47365;SDS011;33105;47.964;7.982;2023-07-31T03:42:21;2.97;;;1.60;;
47365;SDS011;33105;47.964;7.982;2023-07-31T03:45:25;6.32;;;2.10;;
47365;SDS011;33105;47.964;7.982;2023-07-31T03:48:27;4.50;;;1.88;;
47365;SDS011;33105;47.964;7.982;2023-07-31T03:51:30;9.65;;;1.70;;
47365;SDS011;33105;47.964;7.982;2023-07-31T03:54:31;6.18;;;1.70;;
47365;SDS011;33105;47.964;7.982;2023-07-31T03:57:33;6.32;;;2.05;;
47365;SDS011;33105;47.964;7.982;2023-07-31T04:04:34;6.70;;;2.25;;
47365;SDS011;33105;47.964;7.982;2023-07-31T04:07:43;4.97;;;2.03;;
47365;SDS011;33105;47.964;7.982;2023-07-31T04:10:57;8.45;;;1.85;;
47365;SDS011;33105;47.964;7.982;2023-07-31T04:14:03;5.80;;;1.98;;
47365;SDS011;33105;47.964;7.982;2023-07-31T04:17:07;3.72;;;1.65;;
47365;SDS011;33105;47.964;7.982;2023-07-31T04:20:11;4.78;;;2.20;;
47365;SDS011;33105;47.964;7.982;2023-07-31T04:23:13;4.78;;;1.73;;
47365;SDS011;33105;47.964;7.982;2023-07-31T04:26:14;13.25;;;2.38;;
47365;SDS011;33105;47.964;7.982;2023-07-31T04:29:16;6.82;;;2.05;;
47365;SDS011;33105;47.964;7.982;2023-07-31T04:32:18;4.68;;;2.20;;
47365;SDS011;33105;47.964;7.982;2023-07-31T04:35:21;7.85;;;2.42;;
47365;SDS011;33105;47.964;7.982;2023-07-31T04:38:22;9.60;;;2.28;;
47365;SDS011;33105;47.964;7.982;2023-07-31T04:41:23;7.10;;;1.95;;
47365;SDS011;33105;47.964;7.982;2023-07-31T04:44:29;4.43;;;2.13;;
47365;SDS011;33105;47.964;7.982;2023-07-31T04:47:30;4.25;;;1.80;;
47365;SDS011;33105;47.964;7.982;2023-07-31T04:50:32;3.72;;;2.08;;
47365;SDS011;33105;47.964;7.982;2023-07-31T04:53:33;5.63;;;2.17;;
47365;SDS011;33105;47.964;7.982;2023-07-31T04:56:35;10.13;;;2.10;;
47365;SDS011;33105;47.964;7.982;2023-07-31T04:59:45;7.35;;;2.08;;
47365;SDS011;33105;47.964;7.982;2023-07-31T05:03:02;6.53;;;2.10;;
47365;SDS011;33105;47.964;7.982;2023-07-31T05:12:46;7.30;;;2.47;;
47365;SDS011;33105;47.964;7.982;2023-07-31T05:19:21;9.82;;;2.13;;
47365;SDS011;33105;47.964;7.982;2023-07-31T05:22:50;4.60;;;2.20;;
47365;SDS011;33105;47.964;7.982;2023-07-31T05:26:01;8.23;;;2.00;;
47365;SDS011;33105;47.964;7.982;2023-07-31T05:29:04;4.57;;;1.90;;
47365;SDS011;33105;47.964;7.982;2023-07-31T05:32:07;4.70;;;2.00;;
47365;SDS011;33105;47.964;7.982;2023-07-31T05:35:12;6.60;;;2.17;;
47365;SDS011;33105;47.964;7.982;2023-07-31T05:38:19;4.13;;;1.83;;
47365;SDS011;33105;47.964;7.982;2023-07-31T05:41:29;10.70;;;2.08;;
47365;SDS011;33105;47.964;7.982;2023-07-31T05:44:40;3.58;;;1.90;;
47365;SDS011;33105;47.964;7.982;2023-07-31T05:51:15;7.00;;;2.28;;
47365;SDS011;33105;47.964;7.982;2023-07-31T05:54:24;8.77;;;1.80;;
47365;SDS011;33105;47.964;7.982;2023-07-31T05:57:49;9.25;;;2.15;;
47365;SDS011;33105;47.964;7.982;2023-07-31T06:01:09;14.98;;;2.60;;
47365;SDS011;33105;47.964;7.982;2023-07-31T06:04:12;8.27;;;2.40;;
47365;SDS011;33105;47.964;7.982;2023-07-31T06:07:17;6.13;;;2.45;;
47365;SDS011;33105;47.964;7.982;2023-07-31T06:10:35;5.78;;;2.45;;
47365;SDS011;33105;47.964;7.982;2023-07-31T06:13:40;5.18;;;2.15;;
47365;SDS011;33105;47.964;7.982;2023-07-31T06:16:51;5.40;;;2.50;;
47365;SDS011;33105;47.964;7.982;2023-07-31T06:20:02;6.00;;;1.83;;
47365;SDS011;33105;47.964;7.982;2023-07-31T06:23:14;6.43;;;2.33;;
47365;SDS011;33105;47.964;7.982;2023-07-31T06:26:26;9.23;;;2.75;;
47365;SDS011;33105;47.964;7.982;2023-07-31T06:44:06;5.97;;;2.20;;
47365;SDS011;33105;47.964;7.982;2023-07-31T06:51:03;10.05;;;2.80;;
47365;SDS011;33105;47.964;7.982;2023-07-31T07:00:19;6.15;;;2.28;;
47365;SDS011;33105;47.964;7.982;2023-07-31T07:04:48;3.53;;;2.10;;
47365;SDS011;33105;47.964;7.982;2023-07-31T07:12:05;5.25;;;2.15;;
47365;SDS011;33105;47.964;7.982;2023-07-31T07:16:17;7.38;;;2.55;;
47365;SDS011;33105;47.964;7.982;2023-07-31T07:20:37;6.57;;;1.90;;
47365;SDS011;33105;47.964;7.982;2023-07-31T07:23:39;5.93;;;2.28;;
47365;SDS011;33105;47.964;7.982;2023-07-31T07:26:50;6.72;;;2.33;;
47365;SDS011;33105;47.964;7.982;2023-07-31T07:33:40;6.22;;;2.53;;
47365;SDS011;33105;47.964;7.982;2023-07-31T07:37:13;5.63;;;1.77;;
47365;SDS011;33105;47.964;7.982;2023-07-31T07:40:36;6.00;;;1.90;;
47365;SDS011;33105;47.964;7.982;2023-07-31T07:43:40;7.45;;;1.88;;
47365;SDS011;33105;47.964;7.982;2023-07-31T07:47:14;6.53;;;1.85;;
47365;SDS011;33105;47.964;7.982;2023-07-31T07:54:05;7.32;;;2.13;;
47365;SDS011;33105;47.964;7.982;2023-07-31T08:02:07;10.00;;;2.70;;
47365;SDS011;33105;47.964;7.982;2023-07-31T08:05:08;6.57;;;2.08;;
47365;SDS011;33105;47.964;7.982;2023-07-31T08:08:16;9.73;;;2.00;;
47365;SDS011;33105;47.964;7.982;2023-07-31T08:11:17;6.72;;;2.05;;
47365;SDS011;33105;47.964;7.982;2023-07-31T08:14:19;5.35;;;1.88;;
47365;SDS011;33105;47.964;7.982;2023-07-31T08:17:20;9.52;;;2.22;;
47365;SDS011;33105;47.964;7.982;2023-07-31T08:20:23;4.15;;;1.83;;
47365;SDS011;33105;47.964;7.982;2023-07-31T08:23:24;7.15;;;1.90;;
47365;SDS011;33105;47.964;7.982;2023-07-31T08:26:27;11.18;;;2.03;;
47365;SDS011;33105;47.964;7.982;2023-07-31T08:29:30;6.60;;;2.28;;
47365;SDS011;33105;47.964;7.982;2023-07-31T08:32:31;5.47;;;1.80;;
47365;SDS011;33105;47.964;7.982;2023-07-31T08:35:33;5.65;;;2.00;;
47365;SDS011;33105;47.964;7.982;2023-07-31T08:39:09;8.57;;;2.33;;
47365;SDS011;33105;47.964;7.982;2023-07-31T08:42:11;6.45;;;1.75;;
47365;SDS011;33105;47.964;7.982;2023-07-31T08:45:15;6.13;;;1.90;;
47365;SDS011;33105;47.964;7.982;2023-07-31T08:48:23;6.55;;;2.25;;
47365;SDS011;33105;47.964;7.982;2023-07-31T08:51:27;4.82;;;1.73;;
47365;SDS011;33105;47.964;7.982;2023-07-31T08:54:30;7.07;;;2.42;;
47365;SDS011;33105;47.964;7.982;2023-07-31T08:57:36;6.22;;;2.03;;
47365;SDS011;33105;47.964;7.982;2023-07-31T09:00:41;5.40;;;1.67;;
47365;SDS011;33105;47.964;7.982;2023-07-31T09:03:48;5.63;;;2.00;;
47365;SDS011;33105;47.964;7.982;2023-07-31T09:06:54;5.47;;;2.05;;
47365;SDS011;33105;47.964;7.982;2023-07-31T09:10:01;6.55;;;2.08;;
47365;SDS011;33105;47.964;7.982;2023-07-31T09:13:04;5.70;;;1.67;;
47365;SDS011;33105;47.964;7.982;2023-07-31T09:16:08;5.45;;;2.00;;
47365;SDS011;33105;47.964;7.982;2023-07-31T09:19:10;6.50;;;2.08;;
47365;SDS011;33105;47.964;7.982;2023-07-31T09:22:13;5.57;;;1.73;;
47365;SDS011;33105;47.964;7.982;2023-07-31T09:25:24;6.65;;;1.85;;
47365;SDS011;33105;47.964;7.982;2023-07-31T09:28:30;9.30;;;2.00;;
47365;SDS011;33105;47.964;7.982;2023-07-31T09:31:33;7.35;;;1.90;;
47365;SDS011;33105;47.964;7.982;2023-07-31T09:34:41;4.85;;;2.05;;
47365;SDS011;33105;47.964;7.982;2023-07-31T09:37:43;6.72;;;1.85;;
47365;SDS011;33105;47.964;7.982;2023-07-31T09:40:46;7.07;;;2.00;;
47365;SDS011;33105;47.964;7.982;2023-07-31T09:43:53;8.32;;;2.28;;
47365;SDS011;33105;47.964;7.982;2023-07-31T09:46:56;5.18;;;1.80;;
47365;SDS011;33105;47.964;7.982;2023-07-31T09:49:59;6.30;;;2.17;;
47365;SDS011;33105;47.964;7.982;2023-07-31T09:53:01;5.28;;;1.73;;
47365;SDS011;33105;47.964;7.982;2023-07-31T09:56:02;6.43;;;2.00;;
47365;SDS011;33105;47.964;7.982;2023-07-31T09:59:06;5.50;;;1.98;;
47365;SDS011;33105;47.964;7.982;2023-07-31T10:02:13;7.28;;;2.10;;
47365;SDS011;33105;47.964;7.982;2023-07-31T10:05:21;5.28;;;1.90;;
47365;SDS011;33105;47.964;7.982;2023-07-31T10:08:23;5.10;;;1.70;;
47365;SDS011;33105;47.964;7.982;2023-07-31T10:11:31;5.32;;;1.80;;
47365;SDS011;33105;47.964;7.982;2023-07-31T10:14:40;5.47;;;1.90;;
47365;SDS011;33105;47.964;7.982;2023-07-31T10:17:43;7.03;;;2.08;;
47365;SDS011;33105;47.964;7.982;2023-07-31T10:20:45;5.63;;;2.03;;
47365;SDS011;33105;47.964;7.982;2023-07-31T10:23:48;5.25;;;2.00;;
47365;SDS011;33105;47.964;7.982;2023-07-31T10:26:51;5.72;;;1.90;;
47365;SDS011;33105;47.964;7.982;2023-07-31T10:29:54;6.05;;;2.00;;
47365;SDS011;33105;47.964;7.982;2023-07-31T10:32:58;5.40;;;2.08;;
47365;SDS011;33105;47.964;7.982;2023-07-31T10:36:13;3.42;;;1.77;;
47365;SDS011;33105;47.964;7.982;2023-07-31T10:39:33;5.20;;;1.60;;
47365;SDS011;33105;47.964;7.982;2023-07-31T10:42:50;4.95;;;2.05;;
47365;SDS011;33105;47.964;7.982;2023-07-31T10:45:53;4.88;;;1.73;;
47365;SDS011;33105;47.964;7.982;2023-07-31T10:49:01;6.47;;;2.10;;
47365;SDS011;33105;47.964;7.982;2023-07-31T10:52:10;4.55;;;2.15;;
47365;SDS011;33105;47.964;7.982;2023-07-31T10:58:49;5.35;;;1.98;;
47365;SDS011;33105;47.964;7.982;2023-07-31T11:02:07;5.07;;;2.08;;
47365;SDS011;33105;47.964;7.982;2023-07-31T11:05:46;5.43;;;2.30;;
47365;SDS011;33105;47.964;7.982;2023-07-31T11:08:54;6.55;;;2.10;;
47365;SDS011;33105;47.964;7.982;2023-07-31T11:11:56;6.90;;;2.10;;
47365;SDS011;33105;47.964;7.982;2023-07-31T11:14:57;4.95;;;2.20;;
47365;SDS011;33105;47.964;7.982;2023-07-31T11:18:09;6.40;;;2.22;;
47365;SDS011;33105;47.964;7.982;2023-07-31T11:21:28;9.23;;;2.20;;
47365;SDS011;33105;47.964;7.982;2023-07-31T11:24:29;8.35;;;2.08;;
47365;SDS011;33105;47.964;7.982;2023-07-31T11:27:38;8.63;;;2.60;;
47365;SDS011;33105;47.964;7.982;2023-07-31T11:30:44;7.90;;;2.45;;
47365;SDS011;33105;47.964;7.982;2023-07-31T11:33:50;5.93;;;2.33;;
47365;SDS011;33105;47.964;7.982;2023-07-31T11:37:05;4.70;;;2.10;;
47365;SDS011;33105;47.964;7.982;2023-07-31T11:40:06;6.55;;;2.38;;
47365;SDS011;33105;47.964;7.982;2023-07-31T11:43:08;7.20;;;2.22;;
47365;SDS011;33105;47.964;7.982;2023-07-31T11:46:09;9.63;;;2.38;;
47365;SDS011;33105;47.964;7.982;2023-07-31T11:49:11;5.20;;;2.10;;
47365;SDS011;33105;47.964;7.982;2023-07-31T11:52:15;5.95;;;2.20;;
47365;SDS011;33105;47.964;7.982;2023-07-31T11:55:18;8.07;;;2.72;;
47365;SDS011;33105;47.964;7.982;2023-07-31T11:58:20;5.72;;;2.10;;
47365;SDS011;33105;47.964;7.982;2023-07-31T12:01:24;7.55;;;2.47;;
47365;SDS011;33105;47.964;7.982;2023-07-31T12:04:28;4.93;;;2.08;;
47365;SDS011;33105;47.964;7.982;2023-07-31T12:08:05;6.05;;;2.42;;
47365;SDS011;33105;47.964;7.982;2023-07-31T12:11:04;5.35;;;2.30;;
47365;SDS011;33105;47.964;7.982;2023-07-31T12:14:06;7.10;;;2.22;;
47365;SDS011;33105;47.964;7.982;2023-07-31T12:17:09;9.25;;;2.30;;
47365;SDS011;33105;47.964;7.982;2023-07-31T12:20:11;4.60;;;2.13;;
47365;SDS011;33105;47.964;7.982;2023-07-31T12:23:33;4.85;;;2.00;;
47365;SDS011;33105;47.964;7.982;2023-07-31T12:30:42;4.63;;;2.45;;
47365;SDS011;33105;47.964;7.982;2023-07-31T12:33:51;6.45;;;2.75;;
47365;SDS011;33105;47.964;7.982;2023-07-31T12:37:07;5.57;;;2.60;;
47365;SDS011;33105;47.964;7.982;2023-07-31T12:40:09;5.82;;;2.50;;
47365;SDS011;33105;47.964;7.982;2023-07-31T12:43:26;7.70;;;2.42;;
47365;SDS011;33105;47.964;7.982;2023-07-31T12:46:30;6.03;;;2.40;;
47365;SDS011;33105;47.964;7.982;2023-07-31T12:49:32;5.85;;;1.80;;
47365;SDS011;33105;47.964;7.982;2023-07-31T12:52:35;5.95;;;2.22;;
47365;SDS011;33105;47.964;7.982;2023-07-31T12:55:38;10.55;;;2.25;;
47365;SDS011;33105;47.964;7.982;2023-07-31T12:58:40;6.07;;;2.65;;
47365;SDS011;33105;47.964;7.982;2023-07-31T13:01:42;6.85;;;2.50;;
47365;SDS011;33105;47.964;7.982;2023-07-31T13:04:44;7.03;;;2.25;;
47365;SDS011;33105;47.964;7.982;2023-07-31T13:07:49;5.60;;;2.60;;
47365;SDS011;33105;47.964;7.982;2023-07-31T13:10:56;6.93;;;2.75;;
47365;SDS011;33105;47.964;7.982;2023-07-31T13:13:57;4.07;;;2.40;;
47365;SDS011;33105;47.964;7.982;2023-07-31T13:17:21;5.25;;;2.58;;
47365;SDS011;33105;47.964;7.982;2023-07-31T13:20:23;5.53;;;2.22;;
47365;SDS011;33105;47.964;7.982;2023-07-31T13:28:09;5.72;;;2.38;;
47365;SDS011;33105;47.964;7.982;2023-07-31T13:31:30;5.28;;;2.13;;
47365;SDS011;33105;47.964;7.982;2023-07-31T13:34:46;6.72;;;2.50;;
47365;SDS011;33105;47.964;7.982;2023-07-31T13:38:34;9.07;;;2.83;;
47365;SDS011;33105;47.964;7.982;2023-07-31T13:42:03;8.38;;;2.63;;
47365;SDS011;33105;47.964;7.982;2023-07-31T13:45:13;4.20;;;2.47;;
47365;SDS011;33105;47.964;7.982;2023-07-31T13:53:36;6.28;;;2.58;;
47365;SDS011;33105;47.964;7.982;2023-07-31T13:56:48;5.63;;;2.40;;
47365;SDS011;33105;47.964;7.982;2023-07-31T14:00:19;5.97;;;2.45;;
47365;SDS011;33105;47.964;7.982;2023-07-31T14:03:36;5.38;;;2.30;;
47365;SDS011;33105;47.964;7.982;2023-07-31T14:18:12;5.10;;;2.08;;
47365;SDS011;33105;47.964;7.982;2023-07-31T14:22:37;3.55;;;2.08;;
47365;SDS011;33105;47.964;7.982;2023-07-31T14:38:59;7.78;;;2.45;;
47365;SDS011;33105;47.964;7.982;2023-07-31T14:42:30;6.45;;;2.30;;
47365;SDS011;33105;47.964;7.982;2023-07-31T14:46:05;5.68;;;2.38;;
47365;SDS011;33105;47.964;7.982;2023-07-31T14:58:26;4.88;;;2.20;;
47365;SDS011;33105;47.964;7.982;2023-07-31T15:01:48;3.83;;;2.20;;
47365;SDS011;33105;47.964;7.982;2023-07-31T15:05:06;6.13;;;2.42;;
47365;SDS011;33105;47.964;7.982;2023-07-31T15:08:42;4.20;;;2.30;;
47365;SDS011;33105;47.964;7.982;2023-07-31T15:15:42;6.03;;;2.20;;
47365;SDS011;33105;47.964;7.982;2023-07-31T15:18:43;5.57;;;2.17;;
47365;SDS011;33105;47.964;7.982;2023-07-31T15:21:58;3.30;;;2.17;;
47365;SDS011;33105;47.964;7.982;2023-07-31T15:32:48;8.25;;;3.05;;
47365;SDS011;33105;47.964;7.982;2023-07-31T15:36:48;3.90;;;2.45;;
47365;SDS011;33105;47.964;7.982;2023-07-31T15:40:09;4.95;;;2.55;;
47365;SDS011;33105;47.964;7.982;2023-07-31T15:43:55;6.07;;;2.60;;
47365;SDS011;33105;47.964;7.982;2023-07-31T15:48:08;4.47;;;2.20;;
47365;SDS011;33105;47.964;7.982;2023-07-31T15:52:13;6.38;;;2.45;;
47365;SDS011;33105;47.964;7.982;2023-07-31T15:56:00;4.18;;;1.92;;
47365;SDS011;33105;47.964;7.982;2023-07-31T16:00:00;5.47;;;2.40;;
47365;SDS011;33105;47.964;7.982;2023-07-31T16:03:24;3.95;;;2.30;;
47365;SDS011;33105;47.964;7.982;2023-07-31T16:07:04;7.82;;;2.10;;
47365;SDS011;33105;47.964;7.982;2023-07-31T16:11:20;5.20;;;2.30;;
47365;SDS011;33105;47.964;7.982;2023-07-31T16:23:04;2.90;;;2.00;;
47365;SDS011;33105;47.964;7.982;2023-07-31T16:27:01;4.18;;;2.10;;
47365;SDS011;33105;47.964;7.982;2023-07-31T16:30:02;5.03;;;2.50;;
47365;SDS011;33105;47.964;7.982;2023-07-31T16:33:04;3.97;;;2.30;;
47365;SDS011;33105;47.964;7.982;2023-07-31T16:36:11;4.40;;;2.38;;
47365;SDS011;33105;47.964;7.982;2023-07-31T16:39:21;4.43;;;2.35;;
47365;SDS011;33105;47.964;7.982;2023-07-31T16:42:44;3.92;;;2.30;;
47365;SDS011;33105;47.964;7.982;2023-07-31T16:49:16;10.25;;;2.47;;
47365;SDS011;33105;47.964;7.982;2023-07-31T16:52:25;4.55;;;2.72;;
47365;SDS011;33105;47.964;7.982;2023-07-31T16:59:35;4.15;;;2.22;;
47365;SDS011;33105;47.964;7.982;2023-07-31T17:03:04;4.75;;;2.17;;
47365;SDS011;33105;47.964;7.982;2023-07-31T17:06:10;4.95;;;2.30;;
47365;SDS011;33105;47.964;7.982;2023-07-31T17:09:39;6.32;;;2.35;;
47365;SDS011;33105;47.964;7.982;2023-07-31T17:12:54;5.03;;;2.22;;
47365;SDS011;33105;47.964;7.982;2023-07-31T17:16:05;6.03;;;2.35;;
47365;SDS011;33105;47.964;7.982;2023-07-31T17:19:11;3.80;;;2.25;;
47365;SDS011;33105;47.964;7.982;2023-07-31T17:22:44;5.78;;;2.60;;
47365;SDS011;33105;47.964;7.982;2023-07-31T17:25:45;5.00;;;2.90;;
47365;SDS011;33105;47.964;7.982;2023-07-31T17:28:49;4.65;;;2.40;;
47365;SDS011;33105;47.964;7.982;2023-07-31T17:32:25;4.55;;;2.13;;
47365;SDS011;33105;47.964;7.982;2023-07-31T17:35:51;4.95;;;2.70;;
47365;SDS011;33105;47.964;7.982;2023-07-31T17:38:55;5.65;;;2.50;;
47365;SDS011;33105;47.964;7.982;2023-07-31T17:41:58;5.03;;;2.40;;
47365;SDS011;33105;47.964;7.982;2023-07-31T17:45:02;5.40;;;2.50;;
47365;SDS011;33105;47.964;7.982;2023-07-31T17:48:04;6.82;;;2.60;;
47365;SDS011;33105;47.964;7.982;2023-07-31T17:51:09;3.97;;;2.10;;
47365;SDS011;33105;47.964;7.982;2023-07-31T17:54:10;5.15;;;2.35;;
47365;SDS011;33105;47.964;7.982;2023-07-31T17:57:15;5.80;;;2.45;;
47365;SDS011;33105;47.964;7.982;2023-07-31T18:00:16;6.95;;;2.60;;
47365;SDS011;33105;47.964;7.982;2023-07-31T18:03:21;6.93;;;2.35;;
47365;SDS011;33105;47.964;7.982;2023-07-31T18:06:24;5.72;;;2.70;;
47365;SDS011;33105;47.964;7.982;2023-07-31T18:09:29;5.55;;;2.05;;
47365;SDS011;33105;47.964;7.982;2023-07-31T18:12:32;3.20;;;2.38;;
47365;SDS011;33105;47.964;7.982;2023-07-31T18:15:35;3.05;;;2.13;;
47365;SDS011;33105;47.964;7.982;2023-07-31T18:18:38;4.95;;;2.22;;
47365;SDS011;33105;47.964;7.982;2023-07-31T18:21:40;6.25;;;2.47;;
47365;SDS011;33105;47.964;7.982;2023-07-31T18:24:42;5.03;;;2.65;;
47365;SDS011;33105;47.964;7.982;2023-07-31T18:27:44;3.42;;;2.33;;
47365;SDS011;33105;47.964;7.982;2023-07-31T18:30:47;5.95;;;2.80;;
47365;SDS011;33105;47.964;7.982;2023-07-31T18:33:49;6.85;;;2.72;;
47365;SDS011;33105;47.964;7.982;2023-07-31T18:36:50;9.40;;;2.83;;
47365;SDS011;33105;47.964;7.982;2023-07-31T18:39:53;3.92;;;2.50;;
47365;SDS011;33105;47.964;7.982;2023-07-31T18:42:55;4.30;;;2.33;;
47365;SDS011;33105;47.964;7.982;2023-07-31T18:45:58;7.57;;;2.83;;
47365;SDS011;33105;47.964;7.982;2023-07-31T18:49:00;3.42;;;2.40;;
47365;SDS011;33105;47.964;7.982;2023-07-31T18:52:06;5.97;;;2.60;;
47365;SDS011;33105;47.964;7.982;2023-07-31T18:55:08;3.17;;;2.20;;
47365;SDS011;33105;47.964;7.982;2023-07-31T18:58:10;4.75;;;2.83;;
47365;SDS011;33105;47.964;7.982;2023-07-31T19:01:12;5.35;;;2.50;;
47365;SDS011;33105;47.964;7.982;2023-07-31T19:04:14;3.85;;;2.60;;
47365;SDS011;33105;47.964;7.982;2023-07-31T19:07:16;5.90;;;2.80;;
47365;SDS011;33105;47.964;7.982;2023-07-31T19:10:18;4.75;;;2.50;;
47365;SDS011;33105;47.964;7.982;2023-07-31T19:13:19;5.13;;;2.35;;
47365;SDS011;33105;47.964;7.982;2023-07-31T19:16:21;7.65;;;3.13;;
47365;SDS011;33105;47.964;7.982;2023-07-31T19:19:23;4.90;;;2.60;;
47365;SDS011;33105;47.964;7.982;2023-07-31T19:22:24;3.90;;;2.72;;
47365;SDS011;33105;47.964;7.982;2023-07-31T19:25:25;8.30;;;2.60;;
47365;SDS011;33105;47.964;7.982;2023-07-31T19:28:28;5.13;;;2.42;;
47365;SDS011;33105;47.964;7.982;2023-07-31T19:31:30;7.25;;;2.70;;
47365;SDS011;33105;47.964;7.982;2023-07-31T19:34:32;5.00;;;2.63;;
47365;SDS011;33105;47.964;7.982;2023-07-31T19:37:34;4.25;;;2.47;;
47365;SDS011;33105;47.964;7.982;2023-07-31T19:40:35;5.35;;;2.78;;
47365;SDS011;33105;47.964;7.982;2023-07-31T19:43:37;3.47;;;2.42;;
47365;SDS011;33105;47.964;7.982;2023-07-31T19:46:38;6.30;;;3.17;;
47365;SDS011;33105;47.964;7.982;2023-07-31T19:49:40;5.45;;;2.75;;
47365;SDS011;33105;47.964;7.982;2023-07-31T19:52:42;7.90;;;3.00;;
47365;SDS011;33105;47.964;7.982;2023-07-31T19:55:45;9.45;;;2.70;;
47365;SDS011;33105;47.964;7.982;2023-07-31T19:58:48;5.45;;;2.50;;
47365;SDS011;33105;47.964;7.982;2023-07-31T20:01:50;5.15;;;2.67;;
47365;SDS011;33105;47.964;7.982;2023-07-31T20:04:51;5.60;;;2.65;;
47365;SDS011;33105;47.964;7.982;2023-07-31T20:07:53;5.22;;;2.72;;
47365;SDS011;33105;47.964;7.982;2023-07-31T20:10:55;4.45;;;2.65;;
47365;SDS011;33105;47.964;7.982;2023-07-31T20:14:04;5.78;;;2.90;;
47365;SDS011;33105;47.964;7.982;2023-07-31T20:17:08;4.83;;;2.80;;
47365;SDS011;33105;47.964;7.982;2023-07-31T20:20:10;12.57;;;2.92;;
47365;SDS011;33105;47.964;7.982;2023-07-31T20:23:14;7.38;;;2.67;;
47365;SDS011;33105;47.964;7.982;2023-07-31T20:26:15;7.72;;;3.22;;
47365;SDS011;33105;47.964;7.982;2023-07-31T20:29:17;9.60;;;2.83;;
47365;SDS011;33105;47.964;7.982;2023-07-31T20:32:18;6.05;;;2.53;;
47365;SDS011;33105;47.964;7.982;2023-07-31T20:35:20;5.88;;;3.17;;
47365;SDS011;33105;47.964;7.982;2023-07-31T20:38:21;5.13;;;2.78;;
47365;SDS011;33105;47.964;7.982;2023-07-31T20:41:24;5.35;;;2.67;;
47365;SDS011;33105;47.964;7.982;2023-07-31T20:44:25;5.68;;;2.80;;
47365;SDS011;33105;47.964;7.982;2023-07-31T20:47:26;5.53;;;2.92;;
47365;SDS011;33105;47.964;7.982;2023-07-31T20:50:27;8.95;;;3.13;;
47365;SDS011;33105;47.964;7.982;2023-07-31T20:53:32;5.85;;;3.05;;
47365;SDS011;33105;47.964;7.982;2023-07-31T20:56:44;5.78;;;3.03;;
47365;SDS011;33105;47.964;7.982;2023-07-31T20:59:45;7.40;;;3.30;;
47365;SDS011;33105;47.964;7.982;2023-07-31T21:02:48;6.32;;;3.20;;
47365;SDS011;33105;47.964;7.982;2023-07-31T21:05:51;6.15;;;3.13;;
47365;SDS011;33105;47.964;7.982;2023-07-31T21:08:54;3.72;;;2.63;;
47365;SDS011;33105;47.964;7.982;2023-07-31T21:11:55;8.95;;;3.25;;
47365;SDS011;33105;47.964;7.982;2023-07-31T21:14:58;7.57;;;3.17;;
47365;SDS011;33105;47.964;7.982;2023-07-31T21:17:59;6.85;;;3.78;;
47365;SDS011;33105;47.964;7.982;2023-07-31T21:21:02;6.45;;;3.13;;
47365;SDS011;33105;47.964;7.982;2023-07-31T21:24:04;4.93;;;2.90;;
47365;SDS011;33105;47.964;7.982;2023-07-31T21:27:06;10.10;;;3.70;;
47365;SDS011;33105;47.964;7.982;2023-07-31T21:30:09;5.70;;;3.50;;
47365;SDS011;33105;47.964;7.982;2023-07-31T21:33:11;6.82;;;3.67;;
47365;SDS011;33105;47.964;7.982;2023-07-31T21:36:12;10.70;;;3.60;;
47365;SDS011;33105;47.964;7.982;2023-07-31T21:39:16;6.55;;;3.30;;
47365;SDS011;33105;47.964;7.982;2023-07-31T21:42:22;8.00;;;3.65;;
47365;SDS011;33105;47.964;7.982;2023-07-31T21:45:27;7.28;;;3.45;;
47365;SDS011;33105;47.964;7.982;2023-07-31T21:48:29;5.25;;;3.25;;
47365;SDS011;33105;47.964;7.982;2023-07-31T21:52:02;8.73;;;3.60;;
47365;SDS011;33105;47.964;7.982;2023-07-31T21:59:00;7.07;;;3.42;;
47365;SDS011;33105;47.964;7.982;2023-07-31T22:02:55;6.85;;;3.15;;
47365;SDS011;33105;47.964;7.982;2023-07-31T22:06:06;6.95;;;3.72;;
47365;SDS011;33105;47.964;7.982;2023-07-31T22:09:12;5.30;;;3.20;;
47365;SDS011;33105;47.964;7.982;2023-07-31T22:12:16;9.35;;;3.55;;
47365;SDS011;33105;47.964;7.982;2023-07-31T22:15:19;10.38;;;3.53;;
47365;SDS011;33105;47.964;7.982;2023-07-31T22:18:45;6.45;;;3.33;;
47365;SDS011;33105;47.964;7.982;2023-07-31T22:22:20;9.77;;;3.55;;
47365;SDS011;33105;47.964;7.982;2023-07-31T22:25:22;4.85;;;3.00;;